createdAt,value
2022-10-13T00:01:27.276Z,101791.63
2022-10-13T00:03:54.613Z,101795.78
2022-10-13T00:06:25.016Z,101788.38
2022-10-13T00:08:52.022Z,101784.78
2022-10-13T00:11:24.884Z,101794.78
2022-10-13T00:13:52.700Z,101798.66
2022-10-13T00:16:21.513Z,101796.38
2022-10-13T00:18:48.770Z,101799.78
2022-10-13T00:21:18.439Z,101798.50
2022-10-13T00:23:45.566Z,101798.91
2022-10-13T00:26:14.303Z,101786.75
2022-10-13T00:29:40.816Z,101779.16
2022-10-13T00:33:07.357Z,101779.88
2022-10-13T00:36:33.940Z,101788.41
2022-10-13T00:43:06.660Z,101787.00
2022-10-13T00:45:33.296Z,101789.13
2022-10-13T00:48:10.255Z,101788.53
2022-10-13T00:50:43.604Z,101785.09
2022-10-13T00:54:10.461Z,101778.25
2022-10-13T00:57:36.954Z,101781.22
2022-10-13T01:04:55.662Z,101771.78
2022-10-13T01:08:22.099Z,101778.34
2022-10-13T01:11:01.132Z,101774.19
2022-10-13T01:17:49.888Z,101785.00
2022-10-13T01:20:22.574Z,101794.00
2022-10-13T01:23:24.551Z,101786.28
2022-10-13T01:26:23.546Z,101789.22
2022-10-13T01:29:45.013Z,101784.19
2022-10-13T01:36:01.603Z,101777.06
2022-10-13T01:38:41.562Z,101775.75
2022-10-13T01:41:14.076Z,101785.16
2022-10-13T01:43:52.520Z,101790.81
2022-10-13T01:47:19.204Z,101776.84
2022-10-13T01:49:46.726Z,101783.38
2022-10-13T01:53:13.513Z,101790.78
2022-10-13T01:55:57.907Z,101789.31
2022-10-13T01:58:42.424Z,101784.78
2022-10-13T02:01:37.983Z,101790.47
2022-10-13T02:04:25.596Z,101794.31
2022-10-13T02:07:02.175Z,101791.59
2022-10-13T02:09:58.769Z,101786.44
2022-10-13T02:12:42.820Z,101781.25
2022-10-13T02:15:12.485Z,101770.41
2022-10-13T02:17:40.629Z,101775.00
2022-10-13T02:20:08.572Z,101766.25
2022-10-13T02:27:27.504Z,101756.81
2022-10-13T02:30:23.387Z,101755.22
2022-10-13T02:36:34.779Z,101746.66
2022-10-13T02:39:01.614Z,101742.22
2022-10-13T02:42:28.179Z,101731.63
2022-10-13T02:45:54.583Z,101736.31
2022-10-13T02:49:21.189Z,101733.59
2022-10-13T02:52:30.583Z,101731.16
2022-10-13T02:54:57.486Z,101726.88
2022-10-13T02:57:24.483Z,101731.44
2022-10-13T02:59:51.136Z,101722.56
2022-10-13T03:02:19.368Z,101725.28
2022-10-13T03:04:46.354Z,101729.00
2022-10-13T03:07:13.007Z,101728.25
2022-10-13T03:09:40.027Z,101715.81
2022-10-13T03:12:07.009Z,101707.84
2022-10-13T03:14:33.702Z,101705.25
2022-10-13T03:17:01.802Z,101702.81
2022-10-13T03:19:28.558Z,101701.09
2022-10-13T03:21:55.245Z,101698.53
2022-10-13T03:24:22.213Z,101701.38
2022-10-13T03:31:32.892Z,101718.75
2022-10-13T03:34:20.349Z,101723.31
2022-10-13T03:36:47.464Z,101726.38
2022-10-13T03:40:13.961Z,101729.50
2022-10-13T03:42:40.959Z,101735.06
2022-10-13T03:45:08.883Z,101724.34
2022-10-13T03:48:34.219Z,101737.06
2022-10-13T03:52:00.768Z,101749.97
2022-10-13T03:58:23.766Z,101750.25
2022-10-13T04:00:50.930Z,101727.69
2022-10-13T04:03:17.955Z,101727.97
2022-10-13T04:06:44.697Z,101706.69
2022-10-13T04:10:11.656Z,101690.97
2022-10-13T04:13:15.028Z,101675.13
2022-10-13T04:16:15.715Z,101667.97
2022-10-13T04:19:12.601Z,101667.97
2022-10-13T04:21:39.806Z,101672.41
2022-10-13T04:24:20.879Z,101666.84
2022-10-13T04:26:55.512Z,101662.31
2022-10-13T04:30:22.396Z,101668.72
2022-10-13T04:33:09.014Z,101648.19
2022-10-13T04:35:41.715Z,101651.16
2022-10-13T04:38:08.636Z,101651.28
2022-10-13T04:41:31.967Z,101655.09
2022-10-13T04:48:41.630Z,101674.31
2022-10-13T04:51:11.512Z,101668.28
2022-10-13T04:54:38.180Z,101665.59
2022-10-13T04:58:04.642Z,101665.59
2022-10-13T05:00:32.006Z,101665.59
2022-10-13T05:02:58.738Z,101672.84
2022-10-13T05:05:25.428Z,101676.66
2022-10-13T05:07:52.408Z,101666.13
2022-10-13T05:10:19.034Z,101660.81
2022-10-13T05:12:45.719Z,101659.25
2022-10-13T05:15:21.958Z,101670.28
2022-10-13T05:17:49.214Z,101664.16
2022-10-13T05:20:17.724Z,101660.72
2022-10-13T05:22:45.030Z,101671.66
2022-10-13T05:25:11.722Z,101667.97
2022-10-13T05:27:38.453Z,101665.41
2022-10-13T05:30:05.599Z,101664.44
2022-10-13T05:32:32.279Z,101668.97
2022-10-13T05:34:58.892Z,101661.72
2022-10-13T05:42:19.710Z,101643.88
2022-10-13T05:44:46.812Z,101645.72
2022-10-13T05:48:13.404Z,101649.44
2022-10-13T05:50:41.466Z,101643.00
2022-10-13T05:57:06.726Z,101645.00
2022-10-13T05:59:37.067Z,101653.25
2022-10-13T06:02:06.457Z,101648.94
2022-10-13T06:04:41.350Z,101638.13
2022-10-13T06:07:09.120Z,101635.69
2022-10-13T06:09:40.377Z,101623.28
2022-10-13T06:12:08.699Z,101618.00
2022-10-13T06:14:35.587Z,101612.59
2022-10-13T06:17:02.385Z,101605.44
2022-10-13T06:19:29.249Z,101601.00
2022-10-13T06:21:58.859Z,101597.47
2022-10-13T06:24:27.988Z,101575.97
2022-10-13T06:26:54.736Z,101574.97
2022-10-13T06:29:21.382Z,101582.06
2022-10-13T06:31:48.145Z,101589.22
2022-10-13T06:34:15.084Z,101583.66
2022-10-13T06:36:42.331Z,101584.56
2022-10-13T06:39:09.455Z,101577.91
2022-10-13T06:41:36.811Z,101579.34
2022-10-13T06:44:03.679Z,101578.97
2022-10-13T06:46:30.392Z,101578.56
2022-10-13T06:48:57.274Z,101585.69
2022-10-13T06:51:23.889Z,101598.97
2022-10-13T06:53:50.814Z,101608.81
2022-10-13T06:56:17.819Z,101611.38
2022-10-13T06:58:44.429Z,101611.38
2022-10-13T07:01:13.291Z,101616.91
2022-10-13T07:03:40.255Z,101614.22
2022-10-13T07:06:07.945Z,101618.66
2022-10-13T07:08:35.359Z,101621.34
2022-10-13T07:11:15.574Z,101616.91
2022-10-13T07:13:46.387Z,101607.81
2022-10-13T07:16:15.313Z,101614.78
2022-10-13T07:18:42.068Z,101623.78
2022-10-13T07:21:09.581Z,101622.81
2022-10-13T07:23:36.511Z,101620.81
2022-10-13T07:26:07.910Z,101624.00
2022-10-13T07:28:34.675Z,101631.44
2022-10-13T07:31:08.452Z,101636.50
2022-10-13T07:33:35.083Z,101636.09
2022-10-13T07:36:01.684Z,101636.16
2022-10-13T07:38:28.740Z,101619.25
2022-10-13T07:40:55.535Z,101618.88
2022-10-13T07:43:22.153Z,101616.59
2022-10-13T07:45:49.059Z,101620.75
2022-10-13T07:48:16.690Z,101617.75
2022-10-13T07:50:43.445Z,101615.19
2022-10-13T07:53:10.337Z,101620.88
2022-10-13T07:55:37.041Z,101622.53
2022-10-13T07:58:04.386Z,101616.78
2022-10-13T08:00:31.202Z,101615.44
2022-10-13T08:02:57.925Z,101610.75
2022-10-13T08:05:24.606Z,101612.66
2022-10-13T08:07:54.654Z,101618.28
2022-10-13T08:10:24.076Z,101621.91
2022-10-13T08:12:50.743Z,101608.22
2022-10-13T08:15:17.670Z,101603.66
2022-10-13T08:17:44.437Z,101604.78
2022-10-13T08:20:11.346Z,101605.75
2022-10-13T08:22:38.300Z,101606.84
2022-10-13T08:25:07.377Z,101617.81
2022-10-13T08:27:50.182Z,101618.88
2022-10-13T08:30:18.431Z,101625.69
2022-10-13T08:32:45.188Z,101619.78
2022-10-13T08:35:11.846Z,101625.41
2022-10-13T08:37:38.828Z,101625.63
2022-10-13T08:40:06.575Z,101631.09
2022-10-13T08:42:33.285Z,101621.38
2022-10-13T08:45:35.877Z,101622.53
2022-10-13T08:48:01.163Z,101614.13
2022-10-13T08:50:32.151Z,101623.00
2022-10-13T08:53:02.323Z,101618.03
2022-10-13T08:55:38.141Z,101614.53
2022-10-13T08:58:14.464Z,101615.16
2022-10-13T09:00:42.055Z,101611.03
2022-10-13T09:03:29.897Z,101600.84
2022-10-13T09:06:29.067Z,101599.06
2022-10-13T09:09:00.166Z,101596.31
2022-10-13T09:11:35.387Z,101590.56
2022-10-13T09:14:07.843Z,101593.00
2022-10-13T09:16:41.633Z,101594.56
2022-10-13T09:19:36.399Z,101589.69
2022-10-13T09:22:24.139Z,101588.22
2022-10-13T09:25:26.362Z,101572.47
2022-10-13T09:27:58.553Z,101570.19
2022-10-13T09:30:41.637Z,101570.88
2022-10-13T09:33:09.099Z,101572.00
2022-10-13T09:35:37.018Z,101575.84
2022-10-13T09:38:04.569Z,101564.38
2022-10-13T09:40:34.053Z,101558.38
2022-10-13T09:43:20.653Z,101564.75
2022-10-13T09:45:47.622Z,101569.78
2022-10-13T09:48:22.110Z,101558.25
2022-10-13T09:50:52.199Z,101546.94
2022-10-13T09:53:32.873Z,101541.25
2022-10-13T09:56:17.874Z,101540.19
2022-10-13T09:59:09.062Z,101523.84
2022-10-13T10:01:41.075Z,101526.00
2022-10-13T10:04:14.072Z,101524.69
2022-10-13T10:06:41.822Z,101522.44
2022-10-13T10:09:33.286Z,101525.16
2022-10-13T10:12:03.289Z,101519.03
2022-10-13T10:14:33.428Z,101513.69
2022-10-13T10:17:12.162Z,101513.84
2022-10-13T10:19:56.968Z,101502.63
2022-10-13T10:22:44.519Z,101500.94
2022-10-13T10:25:20.567Z,101487.38
2022-10-13T10:28:05.769Z,101481.19
2022-10-13T10:30:39.717Z,101474.75
2022-10-13T10:33:17.591Z,101474.53
2022-10-13T10:36:09.138Z,101476.81
2022-10-13T10:38:48.711Z,101468.47
2022-10-13T10:41:26.995Z,101462.19
2022-10-13T10:44:07.947Z,101456.34
2022-10-13T10:46:42.500Z,101454.94
2022-10-13T10:49:30.493Z,101442.09
2022-10-13T10:51:59.049Z,101445.09
2022-10-13T10:54:34.440Z,101453.78
2022-10-13T10:57:11.492Z,101453.78
2022-10-13T10:59:50.071Z,101454.28
2022-10-13T11:02:41.160Z,101456.00
2022-10-13T11:05:08.150Z,101437.75
2022-10-13T11:07:34.925Z,101429.59
2022-10-13T11:10:21.199Z,101423.56
2022-10-13T11:12:50.904Z,101415.94
2022-10-13T11:15:26.576Z,101407.25
2022-10-13T11:17:53.704Z,101410.56
2022-10-13T11:20:20.436Z,101413.63
2022-10-13T11:22:59.637Z,101415.31
2022-10-13T11:25:29.568Z,101413.69
2022-10-13T11:27:56.387Z,101412.44
2022-10-13T11:30:47.677Z,101422.91
2022-10-13T11:33:34.473Z,101418.72
2022-10-13T11:36:49.779Z,101416.22
2022-10-13T11:39:26.796Z,101402.84
2022-10-13T11:42:20.996Z,101395.44
2022-10-13T11:45:07.436Z,101396.03
2022-10-13T11:48:07.083Z,101403.28
2022-10-13T11:50:59.620Z,101405.84
2022-10-13T11:53:31.790Z,101398.91
2022-10-13T11:56:01.554Z,101405.50
2022-10-13T11:58:33.277Z,101414.59
2022-10-13T12:01:08.943Z,101417.59
2022-10-13T12:03:39.551Z,101420.16
2022-10-13T12:06:35.689Z,101423.16
2022-10-13T12:09:25.211Z,101422.16
2022-10-13T12:12:02.927Z,101428.19
2022-10-13T12:14:45.059Z,101428.44
2022-10-13T12:17:40.697Z,101439.69
2022-10-13T12:20:26.143Z,101433.25
2022-10-13T12:22:54.495Z,101424.59
2022-10-13T12:25:28.426Z,101429.19
2022-10-13T12:27:57.864Z,101430.41
2022-10-13T12:30:30.699Z,101413.50
2022-10-13T12:33:01.024Z,101414.34
2022-10-13T12:35:30.537Z,101408.22
2022-10-13T12:38:00.976Z,101394.72
2022-10-13T12:40:28.997Z,101397.50
2022-10-13T12:42:56.204Z,101376.28
2022-10-13T12:45:31.677Z,101370.13
2022-10-13T12:47:58.519Z,101368.44
2022-10-13T12:50:25.185Z,101362.50
2022-10-13T12:52:55.159Z,101359.13
2022-10-13T12:55:23.489Z,101351.59
2022-10-13T12:57:51.223Z,101346.13
2022-10-13T13:00:21.111Z,101330.44
2022-10-13T13:02:57.088Z,101340.31
2022-10-13T13:05:34.222Z,101336.97
2022-10-13T13:08:02.702Z,101322.69
2022-10-13T13:10:29.561Z,101326.81
2022-10-13T13:12:56.559Z,101315.16
2022-10-13T13:15:36.634Z,101330.03
2022-10-13T13:18:41.753Z,101312.53
2022-10-13T13:21:15.124Z,101298.97
2022-10-13T13:23:43.535Z,101282.13
2022-10-13T13:26:16.016Z,101304.19
2022-10-13T13:28:53.046Z,101284.16
2022-10-13T13:31:25.618Z,101285.97
2022-10-13T13:33:52.686Z,101308.09
2022-10-13T13:36:22.231Z,101325.69
2022-10-13T13:38:50.165Z,101306.25
2022-10-13T13:41:17.415Z,101308.81
2022-10-13T13:43:44.242Z,101322.34
2022-10-13T13:46:21.097Z,101335.53
2022-10-13T13:48:48.300Z,101325.94
2022-10-13T13:51:15.588Z,101328.94
2022-10-13T13:53:42.702Z,101308.59
2022-10-13T13:56:14.426Z,101310.66
2022-10-13T13:58:41.242Z,101306.88
2022-10-13T14:01:08.605Z,101315.56
2022-10-13T14:03:35.470Z,101303.38
2022-10-13T14:06:02.197Z,101285.38
2022-10-13T14:09:29.385Z,101259.28
2022-10-13T14:11:56.397Z,101254.81
2022-10-13T14:14:23.233Z,101263.00
2022-10-13T14:16:50.069Z,101258.47
2022-10-13T14:19:17.014Z,101248.34
2022-10-13T14:21:46.019Z,101250.00
2022-10-13T14:24:12.877Z,101245.25
2022-10-13T14:26:39.652Z,101251.66
2022-10-13T14:29:06.542Z,101231.72
2022-10-13T14:31:33.597Z,101236.31
2022-10-13T14:34:00.405Z,101232.53
2022-10-13T14:36:27.322Z,101217.78
2022-10-13T14:38:55.121Z,101215.38
2022-10-13T14:41:22.349Z,101217.47
2022-10-13T14:43:53.201Z,101224.31
2022-10-13T14:46:20.581Z,101222.59
2022-10-13T14:48:47.637Z,101213.31
2022-10-13T14:51:14.565Z,101209.84
2022-10-13T14:53:43.875Z,101217.53
2022-10-13T14:56:30.482Z,101218.69
2022-10-13T14:59:02.946Z,101219.19
2022-10-13T15:01:30.006Z,101235.88
2022-10-13T15:03:57.094Z,101232.69
2022-10-13T15:06:25.458Z,101228.22
2022-10-13T15:08:52.589Z,101228.19
2022-10-13T15:11:21.169Z,101227.78
2022-10-13T15:13:48.272Z,101222.91
2022-10-13T15:16:28.052Z,101214.84
2022-10-13T15:19:54.607Z,101212.72
2022-10-13T15:26:18.069Z,101212.53
2022-10-13T15:29:44.624Z,101212.09
2022-10-13T15:33:11.564Z,101205.50
2022-10-13T15:40:20.165Z,101194.25
2022-10-13T15:43:46.727Z,101194.06
2022-10-13T15:47:17.093Z,101191.31
2022-10-13T15:50:43.989Z,101185.59
2022-10-13T15:58:03.389Z,101176.75
2022-10-13T16:01:30.128Z,101175.25
2022-10-13T16:08:49.401Z,101177.13
2022-10-13T16:12:15.894Z,101161.84
2022-10-13T16:15:42.566Z,101168.97
2022-10-13T16:19:11.897Z,101165.75
2022-10-13T16:26:31.098Z,101165.84
2022-10-13T16:29:57.715Z,101166.41
2022-10-13T16:32:24.438Z,101175.66
2022-10-13T16:34:51.181Z,101165.50
2022-10-13T16:37:18.344Z,101171.38
2022-10-13T16:39:50.461Z,101168.19
2022-10-13T16:42:18.447Z,101164.16
2022-10-13T16:44:45.163Z,101166.63
2022-10-13T16:47:18.059Z,101165.34
2022-10-13T16:49:45.537Z,101170.59
2022-10-13T16:52:12.427Z,101169.47
2022-10-13T16:54:39.183Z,101170.06
2022-10-13T16:57:06.207Z,101162.63
2022-10-13T16:59:32.948Z,101167.03
2022-10-13T17:01:59.715Z,101168.66
2022-10-13T17:04:26.477Z,101176.44
2022-10-13T17:06:53.171Z,101177.66
2022-10-13T17:10:19.605Z,101176.19
2022-10-13T17:12:46.418Z,101185.25
2022-10-13T17:15:13.203Z,101175.31
2022-10-13T17:17:40.105Z,101171.06
2022-10-13T17:20:07.125Z,101169.56
2022-10-13T17:22:34.598Z,101170.19
2022-10-13T17:25:01.712Z,101176.91
2022-10-13T17:27:28.476Z,101177.28
2022-10-13T17:29:55.362Z,101165.88
2022-10-13T17:32:22.669Z,101163.50
2022-10-13T17:34:49.353Z,101172.13
2022-10-13T17:37:16.124Z,101176.97
2022-10-13T17:39:42.943Z,101178.41
2022-10-13T17:42:09.678Z,101180.50
2022-10-13T17:44:36.564Z,101191.84
2022-10-13T17:47:03.362Z,101178.94
2022-10-13T17:49:30.036Z,101193.41
2022-10-13T17:51:56.924Z,101192.97
2022-10-13T17:54:24.586Z,101183.22
2022-10-13T17:56:51.509Z,101187.00
2022-10-13T17:59:18.591Z,101190.13
2022-10-13T18:01:45.930Z,101200.34
2022-10-13T18:04:15.862Z,101201.72
2022-10-13T18:06:44.259Z,101204.31
2022-10-13T18:09:15.101Z,101204.22
2022-10-13T18:11:48.511Z,101201.59
2022-10-13T18:14:17.776Z,101205.66
2022-10-13T18:16:44.461Z,101200.47
2022-10-13T18:19:11.166Z,101206.69
2022-10-13T18:21:38.254Z,101206.41
2022-10-13T18:24:05.460Z,101201.88
2022-10-13T18:26:36.441Z,101196.69
2022-10-13T18:29:06.142Z,101201.22
2022-10-13T18:31:34.938Z,101209.31
2022-10-13T18:34:05.159Z,101198.63
2022-10-13T18:36:35.457Z,101204.81
2022-10-13T18:39:08.431Z,101202.00
2022-10-13T18:41:37.509Z,101199.78
2022-10-13T18:44:05.063Z,101196.78
2022-10-13T18:46:32.667Z,101190.81
2022-10-13T18:53:52.173Z,101185.56
2022-10-13T18:56:55.993Z,101186.97
2022-10-13T18:59:23.477Z,101179.13
2022-10-13T19:01:50.476Z,101179.50
2022-10-13T19:04:17.801Z,101176.09
2022-10-13T19:06:45.993Z,101179.19
2022-10-13T19:09:15.353Z,101179.38
2022-10-13T19:11:42.696Z,101182.31
2022-10-13T19:14:12.824Z,101178.88
2022-10-13T19:16:44.134Z,101175.50
2022-10-13T19:19:12.007Z,101180.28
2022-10-13T19:21:39.384Z,101177.06
2022-10-13T19:24:07.816Z,101184.59
2022-10-13T19:26:38.626Z,101184.13
2022-10-13T19:29:09.156Z,101193.34
2022-10-13T19:31:38.214Z,101193.69
2022-10-13T19:34:05.678Z,101191.81
2022-10-13T19:36:39.537Z,101196.06
2022-10-13T19:39:11.820Z,101201.16
2022-10-13T19:41:39.137Z,101202.69
2022-10-13T19:44:06.575Z,101205.25
2022-10-13T19:46:35.790Z,101204.88
2022-10-13T19:49:04.331Z,101205.75
2022-10-13T19:51:31.334Z,101208.94
2022-10-13T19:53:58.374Z,101205.19
2022-10-13T19:56:28.596Z,101195.28
2022-10-13T19:58:56.048Z,101199.91
2022-10-13T20:01:23.833Z,101191.53
2022-10-13T20:03:51.639Z,101188.59
2022-10-13T20:06:19.543Z,101182.94
2022-10-13T20:08:46.802Z,101179.19
2022-10-13T20:12:13.446Z,101172.03
2022-10-13T20:15:40.027Z,101168.81
2022-10-13T20:19:09.167Z,101165.59
2022-10-13T20:26:53.595Z,101163.59
2022-10-13T20:30:20.091Z,101166.47
2022-10-13T20:37:37.543Z,101157.50
2022-10-13T20:41:04.164Z,101160.78
2022-10-13T20:43:54.658Z,101157.72
2022-10-13T20:47:21.639Z,101158.94
2022-10-13T20:50:48.589Z,101148.38
2022-10-13T20:54:15.256Z,101154.41
2022-10-13T20:57:41.776Z,101150.69
2022-10-13T21:04:53.065Z,101145.09
2022-10-13T21:08:19.525Z,101132.81
2022-10-13T21:14:38.529Z,101141.03
2022-10-13T21:17:05.393Z,101132.16
2022-10-13T21:19:32.069Z,101139.69
2022-10-13T21:21:59.258Z,101138.34
2022-10-13T21:24:26.040Z,101135.81
2022-10-13T21:26:52.736Z,101145.19
2022-10-13T21:29:19.726Z,101141.13
2022-10-13T21:32:46.372Z,101147.13
2022-10-13T21:36:13.075Z,101147.63
2022-10-13T21:39:39.519Z,101154.50
2022-10-13T21:43:06.248Z,101152.09
2022-10-13T21:50:15.803Z,101151.78
2022-10-13T21:53:42.257Z,101142.56
2022-10-13T21:56:52.042Z,101136.44
2022-10-13T22:00:18.457Z,101127.41
2022-10-13T22:03:45.009Z,101134.25
2022-10-13T22:07:11.462Z,101141.75
2022-10-13T22:10:38.235Z,101137.66
2022-10-13T22:17:47.816Z,101138.16
2022-10-13T22:21:17.121Z,101133.06
2022-10-13T22:28:37.259Z,101129.50
2022-10-13T22:32:04.264Z,101132.41
2022-10-13T22:35:30.800Z,101129.84
2022-10-13T22:38:57.419Z,101131.03
2022-10-13T22:42:23.975Z,101131.41
2022-10-13T22:45:50.532Z,101126.28
2022-10-13T22:49:17.029Z,101125.59
2022-10-13T22:56:36.272Z,101126.13
2022-10-13T23:00:05.924Z,101120.84
2022-10-13T23:07:13.979Z,101116.94
2022-10-13T23:10:40.432Z,101110.31
2022-10-13T23:14:06.974Z,101097.03
2022-10-13T23:17:33.437Z,101097.19
2022-10-13T23:20:00.333Z,101095.69
2022-10-13T23:22:27.034Z,101090.41
2022-10-13T23:24:53.720Z,101091.59
2022-10-13T23:27:20.868Z,101080.69
2022-10-13T23:29:47.655Z,101080.69
2022-10-13T23:32:14.397Z,101079.81
2022-10-13T23:34:41.151Z,101088.19
2022-10-13T23:37:08.021Z,101076.59
2022-10-13T23:39:34.776Z,101075.91
2022-10-13T23:42:01.769Z,101069.97
2022-10-13T23:44:30.048Z,101069.28
2022-10-13T23:46:56.799Z,101067.75
2022-10-13T23:49:23.523Z,101068.78
2022-10-13T23:51:50.184Z,101070.81
2022-10-13T23:54:16.829Z,101070.34
2022-10-13T23:56:43.791Z,101067.09
2022-10-13T23:59:10.643Z,101062.16
